Airfield :
LOGIN :

Register | Disclaimer

   EN    FR    IT 

 










Legend :    VFR   Marginal VFR   IFR   Intensive IFR   Very Intensive IFR
Visi :
Ceiling :
>= 8 km
>= 3000ft
5 to 8 km
1000 to 3000 ft
1500m to 5 km
500 to 1000 ft
800 to 1500m
200 to 500 ft
< 800m
< 200 ft
Symbols :   Thunderstorms  Fog  Heavy snow  Heavy precipitations  Wind > 20 kt
SIGMETs :     Misc.  Thunderstorms  Icing  Turbulence  Mountain Waves  Volcanic Ashes







- Airport Elevation : 102 ft
- IATA code : EXT
- Download approach charts


EGTE - Exeter

CURRENT METAR :
  • 171050Z 26007KT 230V320 9999 FEW020 SCT037 18/11 Q1021

EXPIRED METARs :
  • 171020Z 30004KT 250V020 9999 FEW016 SCT046 18/12 Q1022
  • 170950Z 23004KT 160V290 9999 FEW015 SCT040 17/13 Q1022
  • 170920Z 25007KT 230V290 9999 VCSH FEW015 SCT040 15/13 Q1022
  • 170850Z 22004KT 170V250 9999 VCSH SCT020 16/13 Q1021
  • 170820Z 21005KT 9999 FEW020 SCT042 14/13 Q1021

TAF TAF EGTE
Valid from the 17 at 09:00 until the 17 at 18:00 UTC


170756Z 1709/1718 27003KT 9999 SCT025
No reported NOTAMs for that airfield.



MET'MAP, your aeronautical weather chart ! - Copyright ORBIFLY December 2007 - Disclaimer

ORBIFLY MET'MAP TEAM :

Programming & Development : Alexandra Zaïnal
Concept & Development : Baudouin d'Aumeries
Co-Development & Prog : Marc-Olivier Méhu
Technical & hardware support : Manuel Goepfert

Contact : metmap@orbifly.com




SOURCES & CREDITS :

   NOAA